Time;durP1;ratioP1;P1;durP2;ratioP2;P2;SDS_P1;SDS_P2;PMS_P1;PMS_P2;Temp;Humidity;BMP_temperature;BMP_pressure;BME280_temperature;BME280_humidity;BME280_pressure;Samples;Min_cycle;Max_cycle;Signal;HPM_P1;HPM_P2
2022/10/27 00:02:24;;;;;;;10.73;4.77;;;;;;;;;;5041404;28;20026;-81
2022/10/27 00:04:50;;;;;;;9.47;4.80;;;;;;;;;;5041980;28;20025;-82
2022/10/27 00:07:16;;;;;;;11.97;5.17;;;;;;;;;;5041768;28;20056;-82
2022/10/27 00:09:42;;;;;;;10.23;4.90;;;;;;;;;;5058930;28;20077;-81
2022/10/27 00:12:09;;;;;;;14.10;5.07;;;;;;;;;;5038280;28;20044;-82
2022/10/27 00:14:35;;;;;;;9.90;5.07;;;;;;;;;;5030645;28;20025;-82
2022/10/27 00:17:01;;;;;;;6.47;4.40;;;;;;;;;;5040282;28;20021;-81
2022/10/27 00:19:27;;;;;;;11.37;5.03;;;;;;;;;;5028263;28;20017;-82
2022/10/27 00:21:53;;;;;;;12.77;5.13;;;;;;;;;;5058115;28;20006;-82
2022/10/27 00:24:20;;;;;;;13.97;4.87;;;;;;;;;;5040287;28;20101;-82
2022/10/27 00:26:46;;;;;;;13.03;5.70;;;;;;;;;;5041040;28;20017;-81
2022/10/27 00:29:12;;;;;;;12.40;5.00;;;;;;;;;;5041174;28;20082;-82
2022/10/27 00:31:38;;;;;;;8.07;4.30;;;;;;;;;;5041483;28;20009;-82
2022/10/27 00:34:04;;;;;;;9.13;4.27;;;;;;;;;;5040913;28;20021;-81
2022/10/27 00:36:31;;;;;;;12.73;4.43;;;;;;;;;;5038022;28;20018;-81
2022/10/27 00:38:58;;;;;;;12.47;5.33;;;;;;;;;;5030360;28;20021;-80
2022/10/27 00:41:29;;;;;;;8.47;5.27;;;;;;;;;;5038271;28;20017;-79
2022/10/27 00:43:58;;;;;;;13.23;4.60;;;;;;;;;;5031868;28;20057;-81
2022/10/27 00:46:36;;;;;;;11.20;5.10;;;;;;;;;;5035419;28;20001;-81
2022/10/27 00:49:17;;;;;;;11.40;4.70;;;;;;;;;;5031741;28;20081;-81
2022/10/27 00:51:49;;;;;;;10.97;4.27;;;;;;;;;;5052015;28;20030;-81
2022/10/27 00:54:16;;;;;;;10.77;5.30;;;;;;;;;;5040556;28;20052;-80
2022/10/27 00:56:44;;;;;;;12.03;4.37;;;;;;;;;;5040860;28;20026;-82
2022/10/27 00:59:10;;;;;;;10.50;4.17;;;;;;;;;;5040884;28;20073;-82
2022/10/27 01:01:37;;;;;;;7.00;4.43;;;;;;;;;;5018204;28;20025;-82
2022/10/27 01:04:04;;;;;;;9.20;3.60;;;;;;;;;;5040502;28;20029;-81
2022/10/27 01:06:30;;;;;;;10.77;4.40;;;;;;;;;;5040744;28;20005;-81
2022/10/27 01:08:57;;;;;;;18.70;5.67;;;;;;;;;;5039924;28;20029;-81
2022/10/27 01:11:23;;;;;;;15.43;5.20;;;;;;;;;;5040157;28;20056;-81
2022/10/27 01:13:50;;;;;;;10.03;4.10;;;;;;;;;;5043757;28;20093;-81
2022/10/27 01:16:31;;;;;;;7.87;3.70;;;;;;;;;;5036993;28;20074;-81
2022/10/27 01:19:12;;;;;;;6.93;3.83;;;;;;;;;;5054877;28;20013;-82
2022/10/27 01:21:58;;;;;;;7.53;4.07;;;;;;;;;;5034154;28;20010;-81
2022/10/27 01:24:43;;;;;;;7.53;3.80;;;;;;;;;;5000995;28;20042;-80
2022/10/27 01:27:10;;;;;;;12.77;5.80;;;;;;;;;;5039899;28;20029;-82
2022/10/27 01:29:39;;;;;;;12.43;4.87;;;;;;;;;;5040226;28;20030;-81
2022/10/27 01:32:12;;;;;;;10.90;4.37;;;;;;;;;;5036473;28;20033;-81
2022/10/27 01:34:43;;;;;;;7.80;4.27;;;;;;;;;;5030365;28;20029;-83
2022/10/27 01:37:13;;;;;;;21.10;4.70;;;;;;;;;;5030915;28;20025;-79
2022/10/27 01:39:58;;;;;;;11.40;4.43;;;;;;;;;;5030385;28;20084;-80
2022/10/27 01:42:32;;;;;;;11.03;4.93;;;;;;;;;;5029857;28;20017;-79
2022/10/27 01:44:58;;;;;;;14.30;4.73;;;;;;;;;;5030239;28;20088;-80
2022/10/27 01:47:25;;;;;;;16.93;4.90;;;;;;;;;;5029165;28;20032;-78
2022/10/27 01:49:55;;;;;;;9.07;4.37;;;;;;;;;;5045966;28;20020;-79
2022/10/27 01:52:36;;;;;;;9.83;4.17;;;;;;;;;;5030638;28;20081;-80
2022/10/27 01:55:03;;;;;;;9.00;4.17;;;;;;;;;;5047700;28;20022;-79
2022/10/27 01:57:29;;;;;;;7.87;4.00;;;;;;;;;;5033774;28;20017;-80
2022/10/27 02:00:01;;;;;;;9.50;4.30;;;;;;;;;;5033545;28;20064;-80
2022/10/27 02:02:28;;;;;;;9.18;4.47;;;;;;;;;;5030288;28;20025;-80
2022/10/27 02:04:57;;;;;;;12.03;4.57;;;;;;;;;;5029705;28;20093;-80
2022/10/27 02:07:37;;;;;;;10.47;4.30;;;;;;;;;;5038061;28;20037;-79
2022/10/27 02:10:10;;;;;;;9.83;3.90;;;;;;;;;;5032640;28;20034;-80
2022/10/27 02:12:37;;;;;;;10.53;4.83;;;;;;;;;;5032372;28;20056;-79
2022/10/27 02:15:05;;;;;;;10.87;4.90;;;;;;;;;;5049717;28;20098;-79
2022/10/27 02:17:34;;;;;;;12.00;3.97;;;;;;;;;;5030329;28;20029;-80
2022/10/27 02:20:03;;;;;;;8.20;3.57;;;;;;;;;;5046389;28;20021;-80
2022/10/27 02:22:31;;;;;;;7.57;4.13;;;;;;;;;;5034992;28;20037;-81
2022/10/27 02:24:57;;;;;;;8.83;4.10;;;;;;;;;;5033326;28;20020;-82
2022/10/27 02:27:29;;;;;;;10.57;3.97;;;;;;;;;;5031880;28;20131;-80
2022/10/27 02:29:58;;;;;;;9.00;3.83;;;;;;;;;;5050683;28;20079;-80
2022/10/27 02:32:24;;;;;;;9.90;3.93;;;;;;;;;;5038722;28;20033;-80
2022/10/27 02:34:51;;;;;;;14.07;3.70;;;;;;;;;;5047803;28;20035;-81
2022/10/27 02:37:22;;;;;;;9.07;4.00;;;;;;;;;;5032694;28;20053;-80
2022/10/27 02:39:49;;;;;;;8.07;3.47;;;;;;;;;;5028323;28;20049;-80
2022/10/27 02:42:15;;;;;;;10.97;3.97;;;;;;;;;;5037220;28;20033;-80
2022/10/27 02:44:41;;;;;;;8.33;3.60;;;;;;;;;;5033233;28;20055;-80
2022/10/27 02:47:07;;;;;;;8.43;3.73;;;;;;;;;;5048212;28;20045;-80
2022/10/27 02:49:36;;;;;;;14.70;4.47;;;;;;;;;;5036477;28;20026;-80
2022/10/27 02:52:03;;;;;;;8.07;3.70;;;;;;;;;;5046301;28;20026;-80
2022/10/27 02:54:30;;;;;;;9.87;4.10;;;;;;;;;;5030430;28;20116;-81
2022/10/27 02:56:56;;;;;;;11.80;3.73;;;;;;;;;;5032042;28;20030;-79
2022/10/27 02:59:22;;;;;;;9.67;4.07;;;;;;;;;;5047000;28;20018;-81
2022/10/27 03:01:48;;;;;;;6.30;3.87;;;;;;;;;;5034968;28;20026;-80
2022/10/27 03:04:14;;;;;;;10.97;5.47;;;;;;;;;;5029661;28;20053;-79
2022/10/27 03:06:40;;;;;;;11.37;3.73;;;;;;;;;;5027863;28;20013;-80
2022/10/27 03:09:07;;;;;;;9.73;4.37;;;;;;;;;;5035548;28;20105;-80
2022/10/27 03:11:33;;;;;;;11.63;4.00;;;;;;;;;;5048590;28;20056;-79
2022/10/27 03:13:59;;;;;;;9.63;4.20;;;;;;;;;;5049017;28;20042;-80
2022/10/27 03:16:25;;;;;;;5.57;3.57;;;;;;;;;;5032771;28;20024;-81
2022/10/27 03:18:51;;;;;;;8.10;3.90;;;;;;;;;;5034484;28;20025;-79
2022/10/27 03:21:17;;;;;;;10.67;3.80;;;;;;;;;;5046412;28;20021;-81
2022/10/27 03:23:44;;;;;;;9.77;3.77;;;;;;;;;;5044424;28;20033;-80
2022/10/27 03:26:10;;;;;;;12.97;4.77;;;;;;;;;;5035364;28;20048;-80
2022/10/27 03:28:36;;;;;;;13.43;4.10;;;;;;;;;;5047243;28;20045;-81
2022/10/27 03:31:04;;;;;;;13.10;4.23;;;;;;;;;;5035151;28;20048;-80
2022/10/27 03:33:30;;;;;;;9.23;3.53;;;;;;;;;;5045565;28;20033;-80
2022/10/27 03:35:57;;;;;;;11.37;3.60;;;;;;;;;;5046163;28;20018;-81
2022/10/27 03:38:23;;;;;;;7.53;3.70;;;;;;;;;;5036828;28;20025;-81
2022/10/27 03:40:49;;;;;;;7.53;3.93;;;;;;;;;;5033837;28;20014;-83
2022/10/27 03:43:15;;;;;;;8.13;4.30;;;;;;;;;;5035988;28;20024;-82
2022/10/27 03:45:42;;;;;;;7.83;4.13;;;;;;;;;;5041412;28;20073;-81
2022/10/27 03:48:10;;;;;;;15.97;4.37;;;;;;;;;;5041291;28;20021;-82
2022/10/27 03:50:37;;;;;;;7.70;3.97;;;;;;;;;;5032158;28;20025;-82
2022/10/27 03:53:03;;;;;;;9.67;4.27;;;;;;;;;;5057617;28;20025;-82
2022/10/27 03:55:30;;;;;;;12.40;4.97;;;;;;;;;;5027077;28;20038;-81
2022/10/27 03:57:57;;;;;;;7.67;3.47;;;;;;;;;;5058238;28;20087;-82
2022/10/27 04:00:23;;;;;;;11.57;3.87;;;;;;;;;;5039699;28;20040;-81
2022/10/27 04:02:52;;;;;;;7.93;4.27;;;;;;;;;;5027935;28;20036;-81
2022/10/27 04:05:18;;;;;;;10.53;3.63;;;;;;;;;;5041282;28;20037;-82
2022/10/27 04:07:46;;;;;;;12.47;4.27;;;;;;;;;;5044036;28;20012;-82
2022/10/27 04:10:12;;;;;;;12.73;4.30;;;;;;;;;;5057814;28;20021;-80
2022/10/27 04:12:38;;;;;;;10.00;3.97;;;;;;;;;;5040846;28;20025;-83
2022/10/27 04:15:07;;;;;;;8.80;3.90;;;;;;;;;;5040943;28;20017;-82
2022/10/27 04:17:34;;;;;;;11.87;4.03;;;;;;;;;;5040155;28;20006;-83
2022/10/27 04:20:00;;;;;;;8.60;3.90;;;;;;;;;;5031757;28;20034;-82
2022/10/27 04:22:26;;;;;;;9.23;3.70;;;;;;;;;;5034736;28;20097;-82
2022/10/27 04:24:52;;;;;;;8.33;3.97;;;;;;;;;;5040557;28;20013;-82
2022/10/27 04:27:18;;;;;;;11.53;4.33;;;;;;;;;;5040742;28;20006;-81
2022/10/27 04:29:44;;;;;;;13.57;4.27;;;;;;;;;;5026636;28;20072;-81
2022/10/27 04:32:10;;;;;;;13.73;4.87;;;;;;;;;;5033978;28;20044;-82
2022/10/27 04:34:36;;;;;;;10.33;4.17;;;;;;;;;;5032995;28;20025;-81
2022/10/27 04:37:03;;;;;;;7.93;3.93;;;;;;;;;;5020894;28;20041;-81
2022/10/27 04:39:29;;;;;;;12.43;4.37;;;;;;;;;;5030538;28;20041;-82
2022/10/27 04:41:56;;;;;;;8.43;4.53;;;;;;;;;;5039391;28;20079;-82
2022/10/27 04:44:22;;;;;;;10.60;4.83;;;;;;;;;;5047409;28;20010;-81
2022/10/27 04:46:48;;;;;;;11.97;3.63;;;;;;;;;;5038623;28;20078;-82
2022/10/27 04:49:14;;;;;;;10.30;4.40;;;;;;;;;;5040028;28;20069;-82
2022/10/27 04:51:40;;;;;;;14.43;4.30;;;;;;;;;;5040169;28;20010;-81
2022/10/27 04:54:06;;;;;;;14.73;4.73;;;;;;;;;;5023308;28;20030;-82
2022/10/27 04:56:32;;;;;;;9.93;4.73;;;;;;;;;;5040389;28;20036;-81
2022/10/27 04:58:59;;;;;;;10.00;5.03;;;;;;;;;;5023284;28;20018;-81
2022/10/27 05:01:25;;;;;;;15.33;4.13;;;;;;;;;;5029459;28;20037;-81
2022/10/27 05:03:51;;;;;;;10.07;4.23;;;;;;;;;;5032731;28;20045;-82
2022/10/27 05:06:17;;;;;;;8.53;4.13;;;;;;;;;;5043634;28;20014;-82
2022/10/27 05:08:43;;;;;;;6.23;3.97;;;;;;;;;;5037814;28;20018;-81
2022/10/27 05:11:09;;;;;;;9.23;3.93;;;;;;;;;;5039884;28;20025;-82
2022/10/27 05:13:35;;;;;;;11.33;4.37;;;;;;;;;;5053412;28;20033;-80
2022/10/27 05:16:02;;;;;;;8.57;4.60;;;;;;;;;;5033231;28;20479;-82
2022/10/27 05:18:28;;;;;;;13.70;4.37;;;;;;;;;;5044507;28;20108;-83
2022/10/27 05:20:55;;;;;;;9.87;4.50;;;;;;;;;;5057259;28;20010;-81
2022/10/27 05:23:21;;;;;;;13.57;3.70;;;;;;;;;;5056968;28;20036;-80
2022/10/27 05:25:51;;;;;;;13.33;4.13;;;;;;;;;;5039518;28;20026;-82
2022/10/27 05:28:17;;;;;;;7.90;3.70;;;;;;;;;;5028858;28;20009;-82
2022/10/27 05:30:43;;;;;;;15.27;4.33;;;;;;;;;;5038897;28;20052;-82
2022/10/27 05:33:09;;;;;;;12.90;5.57;;;;;;;;;;5029835;28;20029;-81
2022/10/27 05:35:35;;;;;;;15.30;4.40;;;;;;;;;;5043074;28;20043;-81
2022/10/27 05:38:02;;;;;;;9.10;4.70;;;;;;;;;;5043864;28;20059;-80
2022/10/27 05:40:33;;;;;;;13.23;4.60;;;;;;;;;;5039294;28;20022;-81
2022/10/27 05:43:00;;;;;;;23.13;7.00;;;;;;;;;;5035474;28;20107;-81
2022/10/27 05:45:26;;;;;;;16.40;5.30;;;;;;;;;;5039919;28;20030;-80
2022/10/27 05:47:59;;;;;;;16.60;5.90;;;;;;;;;;5033685;28;20511;-82
2022/10/27 05:50:26;;;;;;;12.33;5.40;;;;;;;;;;5043530;28;20088;-82
2022/10/27 05:52:55;;;;;;;16.00;4.83;;;;;;;;;;5033957;28;20033;-81
2022/10/27 05:55:22;;;;;;;13.60;6.00;;;;;;;;;;5043237;28;20053;-82
2022/10/27 05:57:54;;;;;;;17.33;5.63;;;;;;;;;;5042952;28;20022;-82
2022/10/27 06:00:21;;;;;;;11.75;4.53;;;;;;;;;;5043205;28;20010;-82
2022/10/27 06:02:47;;;;;;;10.53;5.50;;;;;;;;;;5060081;28;20026;-82
2022/10/27 06:05:15;;;;;;;16.63;6.90;;;;;;;;;;5059917;28;20096;-82
2022/10/27 06:07:41;;;;;;;12.83;5.63;;;;;;;;;;5042948;28;20017;-81
2022/10/27 06:10:08;;;;;;;13.97;4.53;;;;;;;;;;5043039;28;20039;-82
2022/10/27 06:12:34;;;;;;;15.40;7.00;;;;;;;;;;5042946;28;20021;-82
2022/10/27 06:15:00;;;;;;;17.17;5.13;;;;;;;;;;5043197;28;20033;-83
2022/10/27 06:17:26;;;;;;;12.57;4.60;;;;;;;;;;5043291;28;20014;-82
2022/10/27 06:19:54;;;;;;;10.80;4.20;;;;;;;;;;5043341;28;20034;-81
2022/10/27 06:22:21;;;;;;;13.47;4.43;;;;;;;;;;5024921;28;20091;-82
2022/10/27 06:24:47;;;;;;;9.60;4.20;;;;;;;;;;5038269;28;20036;-82
2022/10/27 06:27:13;;;;;;;16.80;5.07;;;;;;;;;;5042199;28;20037;-81
2022/10/27 06:29:39;;;;;;;9.50;4.30;;;;;;;;;;5042269;28;20084;-82
2022/10/27 06:32:05;;;;;;;9.53;5.20;;;;;;;;;;5042576;28;20017;-81
2022/10/27 06:34:31;;;;;;;10.53;4.83;;;;;;;;;;5030699;28;20037;-82
2022/10/27 06:37:02;;;;;;;13.70;4.33;;;;;;;;;;5040640;28;20017;-81
2022/10/27 06:39:28;;;;;;;16.13;4.17;;;;;;;;;;5042621;28;20048;-82
2022/10/27 06:41:55;;;;;;;9.70;4.97;;;;;;;;;;5044974;28;21023;-82
2022/10/27 06:44:21;;;;;;;10.80;3.90;;;;;;;;;;5050735;28;20030;-82
2022/10/27 06:46:47;;;;;;;10.33;3.60;;;;;;;;;;5037682;28;20084;-81
2022/10/27 06:49:16;;;;;;;7.00;3.47;;;;;;;;;;5042593;28;20029;-82
2022/10/27 06:51:42;;;;;;;9.47;3.80;;;;;;;;;;5029058;28;20061;-82
2022/10/27 06:54:08;;;;;;;8.30;3.87;;;;;;;;;;5041522;28;20087;-82
2022/10/27 06:56:34;;;;;;;7.73;3.30;;;;;;;;;;5041780;28;20040;-82
2022/10/27 06:59:01;;;;;;;10.13;3.77;;;;;;;;;;5031478;28;20006;-82
2022/10/27 07:01:27;;;;;;;7.77;3.40;;;;;;;;;;5030624;28;20037;-82
2022/10/27 07:03:54;;;;;;;5.70;3.23;;;;;;;;;;5026335;28;20037;-81
2022/10/27 07:06:20;;;;;;;11.73;5.20;;;;;;;;;;5037032;28;20053;-82
2022/10/27 07:08:51;;;;;;;10.53;4.37;;;;;;;;;;5039368;28;20042;-81
2022/10/27 07:11:17;;;;;;;19.27;4.30;;;;;;;;;;5045632;28;20025;-82
2022/10/27 07:13:43;;;;;;;10.97;6.20;;;;;;;;;;5036709;28;20093;-82
2022/10/27 07:16:09;;;;;;;6.83;3.03;;;;;;;;;;5034986;28;20055;-81
2022/10/27 07:18:37;;;;;;;11.23;4.50;;;;;;;;;;5037232;28;20018;-80
2022/10/27 07:21:04;;;;;;;11.50;5.30;;;;;;;;;;5036769;28;20373;-81
2022/10/27 07:23:30;;;;;;;16.60;6.87;;;;;;;;;;5035226;28;20061;-81
2022/10/27 07:25:56;;;;;;;9.10;3.57;;;;;;;;;;5019926;28;20030;-81
2022/10/27 07:28:22;;;;;;;11.17;3.83;;;;;;;;;;5042149;28;20057;-79
2022/10/27 07:30:48;;;;;;;5.30;3.13;;;;;;;;;;5052835;28;20014;-79
2022/10/27 07:33:15;;;;;;;7.43;3.23;;;;;;;;;;5035481;28;20053;-80
2022/10/27 07:35:41;;;;;;;8.23;4.27;;;;;;;;;;5025027;28;20040;-77
2022/10/27 07:38:07;;;;;;;9.07;3.97;;;;;;;;;;5017597;28;20037;-78
2022/10/27 07:40:34;;;;;;;11.33;4.10;;;;;;;;;;5009600;28;20025;-79
2022/10/27 07:43:00;;;;;;;9.00;3.43;;;;;;;;;;5015062;28;20037;-80
2022/10/27 07:45:27;;;;;;;10.07;3.67;;;;;;;;;;5014743;28;20079;-80
2022/10/27 07:47:54;;;;;;;8.50;3.03;;;;;;;;;;5010957;28;20060;-79
2022/10/27 07:50:22;;;;;;;8.50;2.63;;;;;;;;;;5032201;28;20013;-80
2022/10/27 07:52:49;;;;;;;6.83;3.67;;;;;;;;;;5018414;28;20037;-79
2022/10/27 07:55:16;;;;;;;8.57;3.17;;;;;;;;;;5011204;28;20030;-80
2022/10/27 07:57:43;;;;;;;9.43;3.47;;;;;;;;;;5016227;28;20028;-79
2022/10/27 08:00:10;;;;;;;7.17;3.40;;;;;;;;;;5028864;28;20030;-79
2022/10/27 08:02:36;;;;;;;9.77;3.00;;;;;;;;;;5028194;28;20532;-80
2022/10/27 08:05:03;;;;;;;6.97;2.57;;;;;;;;;;5031795;28;20026;-80
2022/10/27 08:07:29;;;;;;;10.70;2.57;;;;;;;;;;5027792;28;20038;-81
2022/10/27 08:09:55;;;;;;;5.63;2.40;;;;;;;;;;5027918;28;20088;-80
2022/10/27 08:12:21;;;;;;;6.57;2.17;;;;;;;;;;5044367;28;20168;-80
2022/10/27 08:14:47;;;;;;;11.33;2.40;;;;;;;;;;5031642;28;20129;-80
2022/10/27 08:17:14;;;;;;;10.40;2.27;;;;;;;;;;5046582;28;20041;-80
2022/10/27 08:19:40;;;;;;;10.13;2.67;;;;;;;;;;5027246;28;20033;-81
2022/10/27 08:22:07;;;;;;;7.57;2.08;;;;;;;;;;5030377;28;20044;-80
2022/10/27 08:24:33;;;;;;;12.23;2.53;;;;;;;;;;5026869;28;20097;-80
2022/10/27 08:26:59;;;;;;;12.07;3.43;;;;;;;;;;5026071;28;20021;-80
2022/10/27 08:29:26;;;;;;;10.37;2.83;;;;;;;;;;5030969;28;20027;-80
2022/10/27 08:31:52;;;;;;;8.90;2.38;;;;;;;;;;5042293;28;20037;-81
2022/10/27 08:34:18;;;;;;;12.18;3.42;;;;;;;;;;5027295;28;20057;-80
2022/10/27 08:36:44;;;;;;;11.93;4.00;;;;;;;;;;5042064;28;20482;-80
2022/10/27 08:39:11;;;;;;;4.15;2.40;;;;;;;;;;5029698;28;20025;-80
2022/10/27 08:41:55;;;;;;;10.98;2.88;;;;;;;;;;5028528;28;20045;-78
2022/10/27 08:44:25;;;;;;;19.27;3.85;;;;;;;;;;5045320;28;20059;-80
2022/10/27 08:46:54;;;;;;;14.55;3.10;;;;;;;;;;5032831;28;20022;-80
2022/10/27 08:49:33;;;;;;;9.40;2.47;;;;;;;;;;5031783;28;20045;-80
2022/10/27 08:52:02;;;;;;;7.32;2.05;;;;;;;;;;5024869;28;20032;-80
2022/10/27 08:54:28;;;;;;;4.95;1.90;;;;;;;;;;5032787;28;20030;-80
2022/10/27 08:56:57;;;;;;;5.90;1.75;;;;;;;;;;5043809;28;20105;-80
2022/10/27 08:59:26;;;;;;;7.57;2.35;;;;;;;;;;5026363;28;20033;-79
2022/10/27 09:02:17;;;;;;;6.60;1.77;;;;;;;;;;5026009;28;20017;-80
2022/10/27 09:04:50;;;;;;;8.15;1.98;;;;;;;;;;5043730;28;20025;-80
2022/10/27 09:07:31;;;;;;;8.98;1.98;;;;;;;;;;5035572;28;20060;-79
2022/10/27 09:09:59;;;;;;;10.25;2.20;;;;;;;;;;5036905;28;20024;-80
2022/10/27 09:12:31;;;;;;;9.70;1.88;;;;;;;;;;5036253;28;20025;-82
2022/10/27 09:15:10;;;;;;;9.70;1.70;;;;;;;;;;5032006;28;20068;-79
2022/10/27 09:17:45;;;;;;;5.90;1.83;;;;;;;;;;5029268;28;20528;-79
2022/10/27 09:20:19;;;;;;;3.78;1.20;;;;;;;;;;5032731;28;20105;-80
2022/10/27 09:22:46;;;;;;;9.40;2.10;;;;;;;;;;5036643;28;20073;-80
2022/10/27 09:25:24;;;;;;;10.35;1.55;;;;;;;;;;5032244;28;20044;-79
2022/10/27 09:27:51;;;;;;;8.82;1.95;;;;;;;;;;5036396;28;20061;-80
2022/10/27 09:30:18;;;;;;;6.70;1.55;;;;;;;;;;5034726;28;20148;-79
2022/10/27 09:32:48;;;;;;;8.45;3.42;;;;;;;;;;5031970;28;20029;-79
2022/10/27 09:35:19;;;;;;;7.18;2.80;;;;;;;;;;5029470;28;20034;-80
2022/10/27 09:37:45;;;;;;;6.63;2.08;;;;;;;;;;5043644;28;20043;-80
2022/10/27 09:40:12;;;;;;;4.70;1.98;;;;;;;;;;5041369;28;20413;-81
2022/10/27 09:42:38;;;;;;;6.13;1.80;;;;;;;;;;5033427;28;20026;-81
2022/10/27 09:45:15;;;;;;;11.75;2.05;;;;;;;;;;5045984;28;20029;-80
2022/10/27 09:47:42;;;;;;;6.35;1.65;;;;;;;;;;5032388;28;20018;-81
2022/10/27 09:50:35;;;;;;;11.55;2.00;;;;;;;;;;5043571;28;20013;-81
2022/10/27 09:53:02;;;;;;;4.38;1.73;;;;;;;;;;5020432;28;20045;-81
2022/10/27 09:55:50;;;;;;;8.23;1.77;;;;;;;;;;5040100;28;20081;-81
2022/10/27 09:58:17;;;;;;;6.35;1.20;;;;;;;;;;5043756;28;20053;-81
2022/10/27 10:00:43;;;;;;;13.20;2.20;;;;;;;;;;5060702;28;20052;-81
2022/10/27 10:03:21;;;;;;;7.97;1.65;;;;;;;;;;5044007;28;20037;-81
2022/10/27 10:05:58;;;;;;;7.28;1.73;;;;;;;;;;5029734;28;20014;-81
2022/10/27 10:08:35;;;;;;;5.93;1.35;;;;;;;;;;5043637;28;20017;-79
2022/10/27 10:11:21;;;;;;;12.95;2.17;;;;;;;;;;5025363;28;20030;-81
2022/10/27 10:13:58;;;;;;;5.05;1.55;;;;;;;;;;5036439;28;20020;-81
2022/10/27 10:16:24;;;;;;;6.15;1.55;;;;;;;;;;5028592;28;20018;-80
2022/10/27 10:19:07;;;;;;;10.68;1.70;;;;;;;;;;5046930;28;20069;-81
2022/10/27 10:21:51;;;;;;;13.65;2.80;;;;;;;;;;5047549;28;20073;-81
2022/10/27 10:24:22;;;;;;;4.88;1.60;;;;;;;;;;5042706;28;20032;-81
2022/10/27 10:26:50;;;;;;;4.88;1.70;;;;;;;;;;5042035;28;20021;-80
2022/10/27 10:29:26;;;;;;;7.22;1.48;;;;;;;;;;5043201;28;20050;-81
2022/10/27 10:31:52;;;;;;;5.45;1.50;;;;;;;;;;5043025;28;20010;-82
2022/10/27 10:34:30;;;;;;;4.55;1.65;;;;;;;;;;5049810;28;20042;-82
2022/10/27 10:36:56;;;;;;;3.65;1.27;;;;;;;;;;5042552;28;20029;-81
2022/10/27 10:39:23;;;;;;;5.53;1.40;;;;;;;;;;5035249;28;20053;-79
2022/10/27 10:42:08;;;;;;;10.15;1.90;;;;;;;;;;5042236;28;20034;-82
2022/10/27 10:44:34;;;;;;;7.43;1.63;;;;;;;;;;5059372;28;20044;-81
2022/10/27 10:47:01;;;;;;;5.90;2.20;;;;;;;;;;5028977;28;20040;-79
2022/10/27 10:49:29;;;;;;;6.10;1.55;;;;;;;;;;5043117;28;20025;-81
2022/10/27 10:51:59;;;;;;;6.93;1.55;;;;;;;;;;5039302;28;20029;-81
2022/10/27 10:54:28;;;;;;;8.10;1.48;;;;;;;;;;5043306;28;20016;-80
2022/10/27 10:56:55;;;;;;;7.40;2.15;;;;;;;;;;5043056;28;20006;-80
2022/10/27 10:59:27;;;;;;;7.40;1.67;;;;;;;;;;5042972;28;20068;-79
2022/10/27 11:02:02;;;;;;;5.55;2.10;;;;;;;;;;5030129;28;20048;-78
2022/10/27 11:04:30;;;;;;;6.07;1.42;;;;;;;;;;5046076;28;20041;-81
2022/10/27 11:07:15;;;;;;;4.90;1.67;;;;;;;;;;5042913;28;20021;-81
2022/10/27 11:09:48;;;;;;;6.72;2.65;;;;;;;;;;5059821;28;20089;-79
2022/10/27 11:12:19;;;;;;;4.40;1.38;;;;;;;;;;5038873;28;20082;-79
2022/10/27 11:14:47;;;;;;;7.18;1.80;;;;;;;;;;5042747;28;20010;-79
2022/10/27 11:17:13;;;;;;;10.77;2.33;;;;;;;;;;5042905;28;20093;-79
2022/10/27 11:19:41;;;;;;;3.92;1.80;;;;;;;;;;5042721;28;20025;-80
2022/10/27 11:22:13;;;;;;;7.47;2.05;;;;;;;;;;5042643;28;20013;-81
2022/10/27 11:24:42;;;;;;;6.93;2.00;;;;;;;;;;5028997;28;20021;-80
2022/10/27 11:27:35;;;;;;;5.28;1.92;;;;;;;;;;5042597;28;20029;-80
2022/10/27 11:30:03;;;;;;;6.80;1.50;;;;;;;;;;5040997;28;20106;-80
2022/10/27 11:32:40;;;;;;;10.05;1.80;;;;;;;;;;5031923;28;20037;-79
2022/10/27 11:35:26;;;;;;;5.32;1.65;;;;;;;;;;5039990;28;20020;-78
2022/10/27 11:37:57;;;;;;;6.13;1.80;;;;;;;;;;5050489;28;20069;-80
2022/10/27 11:40:34;;;;;;;6.38;1.90;;;;;;;;;;5042417;28;20022;-78
2022/10/27 11:43:06;;;;;;;5.05;1.85;;;;;;;;;;5059267;28;20038;-79
2022/10/27 11:45:35;;;;;;;5.50;2.20;;;;;;;;;;5037744;28;20041;-82
2022/10/27 11:48:01;;;;;;;4.45;1.88;;;;;;;;;;5035789;28;20029;-81
2022/10/27 11:50:31;;;;;;;8.57;1.98;;;;;;;;;;5059531;28;20010;-78
2022/10/27 11:52:58;;;;;;;6.18;1.98;;;;;;;;;;5031662;28;20014;-79
2022/10/27 11:55:27;;;;;;;10.32;2.30;;;;;;;;;;5030637;28;20037;-79
2022/10/27 11:57:59;;;;;;;7.57;2.00;;;;;;;;;;5040038;28;20029;-79
2022/10/27 12:00:26;;;;;;;5.95;2.00;;;;;;;;;;5035179;28;20442;-80
2022/10/27 12:03:00;;;;;;;10.15;2.25;;;;;;;;;;5029275;28;20022;-82
2022/10/27 12:05:32;;;;;;;7.20;2.50;;;;;;;;;;5015519;28;20025;-81
2022/10/27 12:07:58;;;;;;;;;;;;;;;;;;5020732;28;20036;-83
2022/10/27 12:10:33;;;;;;;6.47;1.80;;;;;;;;;;5005967;28;20246;-82
2022/10/27 12:13:04;;;;;;;13.48;2.65;;;;;;;;;;5022942;28;20029;-81
2022/10/27 12:15:30;;;;;;;6.22;2.05;;;;;;;;;;5023465;28;20030;-82
2022/10/27 12:17:59;;;;;;;11.25;2.45;;;;;;;;;;5036688;28;20025;-82
2022/10/27 12:20:37;;;;;;;8.13;1.92;;;;;;;;;;5030944;28;20046;-78
2022/10/27 12:23:08;;;;;;;7.30;2.00;;;;;;;;;;5020501;28;20038;-81
2022/10/27 12:25:38;;;;;;;12.50;2.55;;;;;;;;;;5027093;28;20029;-80
2022/10/27 12:28:06;;;;;;;9.85;2.55;;;;;;;;;;5035328;28;20037;-80
2022/10/27 12:30:32;;;;;;;7.05;1.98;;;;;;;;;;5033288;28;20030;-80
2022/10/27 12:33:14;;;;;;;7.70;1.90;;;;;;;;;;5047269;28;20025;-81
2022/10/27 12:35:52;;;;;;;7.82;2.25;;;;;;;;;;5032251;28;20033;-80
2022/10/27 12:38:18;;;;;;;9.85;2.30;;;;;;;;;;5047628;28;20053;-80
2022/10/27 12:40:59;;;;;;;8.48;2.83;;;;;;;;;;5019066;28;20037;-84
2022/10/27 12:43:35;;;;;;;5.38;2.25;;;;;;;;;;5014890;28;20103;-81
2022/10/27 12:46:10;;;;;;;3.95;1.73;;;;;;;;;;5028262;28;20026;-82
2022/10/27 12:48:39;;;;;;;8.75;2.10;;;;;;;;;;5017134;28;20108;-80
2022/10/27 12:51:17;;;;;;;6.72;1.88;;;;;;;;;;5018003;28;20018;-82
2022/10/27 12:54:02;;;;;;;8.68;2.33;;;;;;;;;;5016410;28;20033;-80
2022/10/27 12:57:07;;;;;;;11.70;2.53;;;;;;;;;;5019577;28;20056;-81
2022/10/27 12:59:38;;;;;;;4.93;2.30;;;;;;;;;;4986704;28;20125;-84
2022/10/27 13:02:09;;;;;;;5.47;2.33;;;;;;;;;;5014476;28;20112;-84
2022/10/27 13:04:54;;;;;;;11.50;2.20;;;;;;;;;;5006280;28;20422;-84
2022/10/27 13:07:20;;;;;;;8.73;2.65;;;;;;;;;;5005508;28;20033;-83
2022/10/27 13:09:46;;;;;;;4.75;2.17;;;;;;;;;;5017791;28;20021;-84
2022/10/27 13:12:15;;;;;;;11.35;2.65;;;;;;;;;;5018081;28;20021;-84
2022/10/27 13:15:07;;;;;;;8.18;2.10;;;;;;;;;;5018182;28;20026;-85
2022/10/27 13:17:56;;;;;;;8.48;2.92;;;;;;;;;;5017855;28;20025;-85
2022/10/27 13:20:28;;;;;;;5.93;2.00;;;;;;;;;;5035239;28;20096;-85
2022/10/27 13:23:01;;;;;;;6.13;2.15;;;;;;;;;;5003777;28;20022;-85
2022/10/27 13:25:37;;;;;;;8.45;2.22;;;;;;;;;;5007368;28;20026;-85
2022/10/27 13:28:16;;;;;;;7.93;3.15;;;;;;;;;;5033933;28;20017;-85
2022/10/27 13:30:43;;;;;;;6.47;2.40;;;;;;;;;;5035079;28;20025;-85
2022/10/27 13:33:28;;;;;;;5.97;2.38;;;;;;;;;;5004007;28;20030;-85
2022/10/27 13:36:14;;;;;;;6.35;2.40;;;;;;;;;;5012677;28;20076;-84
2022/10/27 13:38:40;;;;;;;6.78;2.13;;;;;;;;;;5024118;28;20095;-83
2022/10/27 13:41:06;;;;;;;7.82;2.22;;;;;;;;;;5005249;28;20037;-82
2022/10/27 13:43:34;;;;;;;12.68;2.63;;;;;;;;;;5007338;28;20034;-84
2022/10/27 13:46:00;;;;;;;8.88;1.92;;;;;;;;;;5006952;28;20024;-83
2022/10/27 13:48:26;;;;;;;4.20;2.22;;;;;;;;;;5008305;28;20018;-83
2022/10/27 13:50:57;;;;;;;4.65;2.00;;;;;;;;;;5007804;28;20021;-83
2022/10/27 13:53:24;;;;;;;8.63;2.25;;;;;;;;;;5019204;28;20083;-84
2022/10/27 13:55:55;;;;;;;10.05;2.85;;;;;;;;;;5008870;28;20033;-84
2022/10/27 13:58:30;;;;;;;7.82;2.85;;;;;;;;;;5031408;28;20026;-84
2022/10/27 14:01:11;;;;;;;8.70;2.65;;;;;;;;;;5032798;28;20029;-84
2022/10/27 14:03:37;;;;;;;8.63;2.83;;;;;;;;;;5015400;28;20033;-83
2022/10/27 14:06:03;;;;;;;8.73;2.47;;;;;;;;;;5022982;28;20037;-84
2022/10/27 14:08:30;;;;;;;8.88;2.83;;;;;;;;;;5025986;28;20104;-84
2022/10/27 14:10:59;;;;;;;10.85;2.08;;;;;;;;;;5008921;28;20068;-84
2022/10/27 14:13:35;;;;;;;9.30;2.70;;;;;;;;;;5012425;28;20026;-84
2022/10/27 14:16:02;;;;;;;10.18;3.22;;;;;;;;;;5010069;28;20683;-84
2022/10/27 14:18:33;;;;;;;7.75;2.58;;;;;;;;;;5014673;28;20056;-85
2022/10/27 14:21:12;;;;;;;9.00;2.92;;;;;;;;;;5032811;28;20037;-83
2022/10/27 14:23:38;;;;;;;12.00;2.97;;;;;;;;;;5024811;28;20064;-84
2022/10/27 14:26:23;;;;;;;11.88;3.17;;;;;;;;;;5030324;28;20031;-84
2022/10/27 14:28:49;;;;;;;9.23;2.80;;;;;;;;;;5012827;28;20117;-82
2022/10/27 14:31:20;;;;;;;6.95;2.10;;;;;;;;;;5013314;28;20057;-81
2022/10/27 14:33:49;;;;;;;10.48;2.60;;;;;;;;;;5015268;28;20350;-81
2022/10/27 14:36:19;;;;;;;17.40;3.40;;;;;;;;;;5014555;28;20038;-81
2022/10/27 14:38:46;;;;;;;14.23;2.67;;;;;;;;;;5035813;28;20058;-79
2022/10/27 14:41:14;;;;;;;10.57;2.53;;;;;;;;;;5030710;28;20025;-79
2022/10/27 14:43:41;;;;;;;12.25;3.05;;;;;;;;;;5029810;28;20092;-79
2022/10/27 14:46:12;;;;;;;11.82;3.30;;;;;;;;;;5030155;28;20033;-78
2022/10/27 14:48:38;;;;;;;5.18;2.28;;;;;;;;;;5032371;28;20035;-78
2022/10/27 14:51:11;;;;;;;5.95;2.47;;;;;;;;;;5030404;28;20021;-79
2022/10/27 14:53:37;;;;;;;9.07;2.75;;;;;;;;;;5033558;28;20090;-79